Time;durP1;ratioP1;P1;durP2;ratioP2;P2;SDS_P1;SDS_P2;PMS_P1;PMS_P2;Temp;Humidity;BMP_temperature;BMP_pressure;BME280_temperature;BME280_humidity;BME280_pressure;Samples;Min_cycle;Max_cycle;Signal;HPM_P1;HPM_P2
2022/10/31 00:01:34;;;;;;;5.37;4.70;;;16.60;76.30;;;-142.21;100.00;112049.66;4992322;28;20447;-73
2022/10/31 00:04:02;;;;;;;7.67;4.20;;;16.70;76.60;;;-142.21;100.00;112049.66;4991568;28;20443;-72
2022/10/31 00:06:29;;;;;;;6.10;4.67;;;16.60;76.30;;;-142.21;100.00;112049.66;4995237;28;20953;-71
2022/10/31 00:09:01;;;;;;;5.80;4.37;;;16.60;76.30;;;-142.21;100.00;112049.66;5002885;28;20906;-72
2022/10/31 00:11:30;;;;;;;6.20;4.53;;;16.60;76.30;;;-142.21;100.00;112049.66;5015409;28;20470;-72
2022/10/31 00:13:59;;;;;;;7.40;4.87;;;16.60;76.30;;;-142.21;100.00;112049.66;5014021;28;20454;-71
2022/10/31 00:16:29;;;;;;;6.10;4.60;;;16.60;76.30;;;-142.21;100.00;112049.66;5011012;28;20454;-71
2022/10/31 00:19:01;;;;;;;10.17;5.03;;;16.50;76.20;;;-142.21;100.00;112049.66;5014773;28;20461;-72
2022/10/31 00:21:31;;;;;;;5.63;4.80;;;16.50;77.20;;;-142.21;100.00;112049.66;5014631;28;20434;-72
2022/10/31 00:23:59;;;;;;;5.10;4.20;;;16.40;76.30;;;-142.21;100.00;112049.66;5014806;28;20469;-73
2022/10/31 00:26:30;;;;;;;6.00;4.43;;;16.40;77.20;;;-142.21;100.00;112049.66;4997412;28;20450;-74
2022/10/31 00:28:58;;;;;;;5.63;4.20;;;16.40;76.40;;;-142.21;100.00;112049.66;5014882;28;20437;-72
2022/10/31 00:31:29;;;;;;;5.27;4.30;;;16.30;76.40;;;-142.21;100.00;112049.66;5008248;28;20490;-73
2022/10/31 00:33:56;;;;;;;5.20;3.70;;;16.40;76.60;;;-142.21;100.00;112049.66;5014843;28;20433;-72
2022/10/31 00:36:26;;;;;;;6.20;4.10;;;16.30;76.60;;;-142.21;100.00;112049.66;5014206;28;20456;-72
2022/10/31 00:38:53;;;;;;;6.13;4.10;;;16.30;76.90;;;-142.21;100.00;112049.66;5014987;28;20457;-72
2022/10/31 00:41:20;;;;;;;6.43;4.07;;;16.30;76.90;;;-142.21;100.00;112049.66;5014979;28;20449;-72
2022/10/31 00:43:49;;;;;;;5.47;3.90;;;16.20;76.80;;;-142.21;100.00;112049.66;5015012;28;20504;-72
2022/10/31 00:46:16;;;;;;;5.03;3.97;;;16.20;76.70;;;-142.21;100.00;112049.66;5011637;28;20456;-71
2022/10/31 00:48:43;;;;;;;6.37;4.20;;;16.20;76.30;;;-142.21;100.00;112049.66;5014642;28;20442;-72
2022/10/31 00:51:11;;;;;;;5.33;4.07;;;16.20;76.40;;;-142.21;100.00;112049.66;5008322;28;20497;-74
2022/10/31 00:53:39;;;;;;;7.00;4.07;;;16.20;76.40;;;-142.21;100.00;112049.66;5010285;28;20449;-72
2022/10/31 00:56:07;;;;;;;6.20;4.23;;;16.20;76.40;;;-142.21;100.00;112049.66;5007659;28;20848;-72
2022/10/31 00:58:35;;;;;;;5.77;4.10;;;16.20;76.50;;;-142.21;100.00;112049.66;5009971;28;20529;-72
2022/10/31 01:01:05;;;;;;;5.23;4.13;;;16.10;76.30;;;-142.21;100.00;112049.66;5007643;28;20454;-73
2022/10/31 01:03:34;;;;;;;5.07;4.00;;;16.10;76.50;;;-142.21;100.00;112049.66;4989619;28;20548;-73
2022/10/31 01:06:05;;;;;;;5.57;4.03;;;16.10;76.20;;;-142.21;100.00;112049.66;5029212;28;20458;-73
2022/10/31 01:08:32;;;;;;;7.67;3.97;;;16.00;75.80;;;-142.21;100.00;112049.66;5013882;28;20886;-73
2022/10/31 01:11:09;;;;;;;7.00;4.03;;;16.10;76.40;;;-142.21;100.00;112049.66;5013248;28;20489;-73
2022/10/31 01:13:37;;;;;;;6.67;3.80;;;16.10;75.70;;;-142.21;100.00;112049.66;5012628;28;20477;-73
2022/10/31 01:16:09;;;;;;;6.03;3.73;;;16.10;75.60;;;-142.21;100.00;112049.66;5012636;28;20526;-72
2022/10/31 01:18:37;;;;;;;5.57;3.87;;;16.10;75.80;;;-142.21;100.00;112049.66;5011541;28;20800;-72
2022/10/31 01:21:08;;;;;;;5.93;3.90;;;16.00;75.80;;;-142.21;100.00;112049.66;5013419;28;21065;-72
2022/10/31 01:23:36;;;;;;;7.10;4.43;;;15.90;76.00;;;-142.21;100.00;112049.66;5013778;28;20517;-73
2022/10/31 01:26:08;;;;;;;5.57;4.13;;;15.90;76.10;;;-142.21;100.00;112049.66;5012744;28;20871;-73
2022/10/31 01:28:37;;;;;;;5.23;4.10;;;15.90;76.00;;;-142.21;100.00;112049.66;4962734;28;20443;-72
2022/10/31 01:31:09;;;;;;;6.93;4.00;;;15.90;75.80;;;-142.21;100.00;112049.66;5013506;28;20875;-73
2022/10/31 01:33:38;;;;;;;9.53;4.37;;;15.90;75.70;;;-142.21;100.00;112049.66;5012667;28;20946;-73
2022/10/31 01:36:15;;;;;;;7.17;4.20;;;15.90;75.60;;;-142.21;100.00;112049.66;5012722;28;20505;-73
2022/10/31 01:38:43;;;;;;;7.80;4.33;;;15.90;75.50;;;-142.21;100.00;112049.66;4978470;28;20851;-73
2022/10/31 01:41:12;;;;;;;6.07;3.70;;;15.80;75.30;;;-142.21;100.00;112049.66;4993774;28;20447;-73
2022/10/31 01:43:51;;;;;;;7.93;3.77;;;15.80;75.50;;;-142.21;100.00;112049.66;4993961;28;20962;-73
2022/10/31 01:46:25;;;;;;;6.53;3.73;;;15.70;75.40;;;-142.21;100.00;112049.66;5007141;28;20526;-73
2022/10/31 01:48:56;;;;;;;7.63;3.83;;;15.70;75.50;;;-142.21;100.00;112049.66;5017791;28;20480;-73
2022/10/31 01:51:33;;;;;;;4.33;3.93;;;15.70;75.60;;;-142.21;100.00;112049.66;5011185;28;20481;-72
2022/10/31 01:54:07;;;;;;;6.70;3.70;;;15.70;75.70;;;-142.21;100.00;112049.66;5006918;28;20497;-73
2022/10/31 01:56:40;;;;;;;4.50;3.50;;;15.70;75.60;;;-142.21;100.00;112049.66;4949555;28;20443;-73
2022/10/31 01:59:12;;;;;;;4.70;3.43;;;15.60;75.50;;;-142.21;100.00;112049.66;4984775;28;20457;-73
2022/10/31 02:01:41;;;;;;;5.00;3.70;;;15.60;75.60;;;-142.21;100.00;112049.66;5008757;28;20476;-73
2022/10/31 02:04:09;;;;;;;6.47;3.90;;;15.50;75.50;;;-142.21;100.00;112049.66;5011299;28;20446;-73
2022/10/31 02:06:45;;;;;;;4.83;3.70;;;15.60;75.70;;;-142.21;100.00;112049.66;5012596;28;20784;-73
2022/10/31 02:09:14;;;;;;;7.80;3.80;;;15.50;75.70;;;-142.21;100.00;112049.66;5012600;28;20473;-72
2022/10/31 02:11:45;;;;;;;6.23;3.97;;;15.50;75.70;;;-142.21;100.00;112049.66;5001477;28;21010;-73
2022/10/31 02:14:13;;;;;;;5.93;3.97;;;15.50;75.70;;;-142.21;100.00;112049.66;5008741;28;20519;-72
2022/10/31 02:16:42;;;;;;;5.57;4.00;;;15.50;75.50;;;-142.21;100.00;112049.66;5010467;28;20467;-73
2022/10/31 02:19:17;;;;;;;7.30;3.83;;;15.60;75.70;;;-142.21;100.00;112049.66;5012186;28;20450;-73
2022/10/31 02:21:54;;;;;;;8.13;4.23;;;15.50;75.60;;;-142.21;100.00;112049.66;5001029;28;20435;-73
2022/10/31 02:25:04;;;;;;;8.40;4.43;;;15.50;75.60;;;-142.21;100.00;112049.66;4977222;28;20449;-73
2022/10/31 02:28:16;;;;;;;7.73;3.97;;;15.50;75.80;;;-142.21;100.00;112049.66;5011863;28;20935;-72
2022/10/31 02:31:05;;;;;;;6.23;3.73;;;15.50;75.80;;;-142.21;100.00;112049.66;5009938;28;20447;-73
2022/10/31 02:33:45;;;;;;;9.10;4.07;;;15.50;75.80;;;-142.21;100.00;112049.66;5020092;28;20495;-72
2022/10/31 02:36:24;;;;;;;8.63;3.90;;;15.40;75.80;;;-142.21;100.00;112049.66;5022757;28;20474;-72
2022/10/31 02:39:03;;;;;;;4.40;3.83;;;15.40;76.00;;;-142.21;100.00;112049.66;4996701;28;20518;-73
2022/10/31 02:41:41;;;;;;;4.43;3.60;;;15.40;75.90;;;-142.21;100.00;112049.66;5021483;28;20925;-73
2022/10/31 02:44:19;;;;;;;8.33;4.47;;;15.40;75.60;;;-142.21;100.00;112049.66;5014701;28;20438;-73
2022/10/31 02:46:52;;;;;;;6.30;3.90;;;15.30;75.60;;;-142.21;100.00;112049.66;5001933;28;20829;-73
2022/10/31 02:49:27;;;;;;;5.77;3.37;;;15.30;75.50;;;-142.21;100.00;112049.66;4993025;28;20738;-74
2022/10/31 02:51:55;;;;;;;5.90;4.00;;;15.30;75.50;;;-142.21;100.00;112049.66;5003295;28;20512;-73
2022/10/31 02:54:25;;;;;;;5.13;3.53;;;15.30;75.50;;;-142.21;100.00;112049.66;4996677;28;21026;-73
2022/10/31 02:57:01;;;;;;;6.33;4.13;;;15.20;75.40;;;-142.21;100.00;112049.66;5005455;28;20440;-73
2022/10/31 02:59:32;;;;;;;8.60;4.07;;;15.20;75.60;;;-142.21;100.00;112049.66;5010978;28;20756;-73
2022/10/31 03:03:01;;;;;;;6.07;4.00;;;15.20;75.60;;;-142.21;100.00;112049.66;5013807;28;20526;-73
2022/10/31 03:05:56;;;;;;;5.50;3.67;;;15.20;76.10;;;-142.21;100.00;112049.66;4993926;28;20431;-72
2022/10/31 03:08:35;;;;;;;5.23;3.40;;;15.20;76.00;;;-142.21;100.00;112049.66;4970393;28;20565;-73
2022/10/31 03:11:07;;;;;;;6.43;3.80;;;15.10;75.80;;;-142.21;100.00;112049.66;5012633;28;20485;-74
2022/10/31 03:13:46;;;;;;;5.70;4.00;;;15.10;76.10;;;-142.21;100.00;112049.66;5012846;28;20541;-73
2022/10/31 03:16:19;;;;;;;3.27;2.97;;;15.10;76.20;;;-142.21;100.00;112049.66;5010941;28;20501;-73
2022/10/31 03:18:58;;;;;;;10.47;4.80;;;15.10;75.80;;;-142.21;100.00;112049.66;5004811;28;20505;-73
2022/10/31 03:21:34;;;;;;;6.90;3.67;;;15.10;76.10;;;-142.21;100.00;112049.66;5034715;28;20482;-74
2022/10/31 03:24:06;;;;;;;4.43;3.50;;;15.10;76.10;;;-142.21;100.00;112049.66;5027529;28;20430;-73
2022/10/31 03:26:37;;;;;;;4.83;3.60;;;15.00;76.20;;;-142.21;100.00;112049.66;5013522;28;20470;-73
2022/10/31 03:29:08;;;;;;;7.23;3.80;;;15.00;76.20;;;-142.21;100.00;112049.66;5035393;28;20438;-75
2022/10/31 03:31:39;;;;;;;8.50;3.17;;;15.00;75.90;;;-142.21;100.00;112049.66;5034819;28;20505;-73
2022/10/31 03:34:10;;;;;;;6.27;4.00;;;15.00;76.00;;;-142.21;100.00;112049.66;4962045;28;20451;-73
2022/10/31 03:36:41;;;;;;;6.10;3.20;;;14.90;77.10;;;-142.21;100.00;112049.66;4992877;28;20523;-73
2022/10/31 03:39:15;;;;;;;4.50;3.63;;;14.80;77.30;;;-142.21;100.00;112049.66;5009737;28;20470;-73
2022/10/31 03:41:50;;;;;;;4.93;3.60;;;14.80;77.20;;;-142.21;100.00;112049.66;5008934;28;20481;-73
2022/10/31 03:44:22;;;;;;;3.80;3.40;;;14.80;77.00;;;-142.21;100.00;112049.66;5010444;28;20950;-73
2022/10/31 03:46:49;;;;;;;5.97;3.57;;;14.80;76.60;;;-142.21;100.00;112049.66;5011346;28;20473;-72
2022/10/31 03:49:18;;;;;;;5.80;3.63;;;14.90;76.60;;;-142.21;100.00;112049.66;5012669;28;20466;-73
2022/10/31 03:51:55;;;;;;;5.47;3.53;;;14.90;76.30;;;-142.21;100.00;112049.66;5008411;28;20908;-73
2022/10/31 03:54:31;;;;;;;4.50;3.40;;;14.90;76.30;;;-142.21;100.00;112049.66;5001499;28;20546;-72
2022/10/31 03:57:07;;;;;;;4.70;3.50;;;14.80;76.10;;;-142.21;100.00;112049.66;5008801;28;20438;-73
2022/10/31 03:59:42;;;;;;;6.97;3.80;;;14.80;77.00;;;-142.21;100.00;112049.66;4999975;28;20480;-73
2022/10/31 04:02:15;;;;;;;4.00;3.60;;;14.80;76.40;;;-142.21;100.00;112049.66;5003618;28;20482;-73
2022/10/31 04:04:47;;;;;;;5.03;3.80;;;14.80;76.40;;;-142.21;100.00;112049.66;5014378;28;20501;-73
2022/10/31 04:07:16;;;;;;;4.27;3.70;;;14.70;76.30;;;-142.21;100.00;112049.66;5000977;28;20441;-73
2022/10/31 04:09:48;;;;;;;5.57;3.50;;;14.70;76.30;;;-142.21;100.00;112049.66;5015404;28;20553;-73
2022/10/31 04:12:17;;;;;;;4.87;3.20;;;14.70;76.50;;;-142.21;100.00;112049.66;4999124;28;20566;-73
2022/10/31 04:14:48;;;;;;;4.83;3.10;;;14.70;76.30;;;-142.21;100.00;112049.66;5006743;28;20445;-73
2022/10/31 04:17:22;;;;;;;3.73;3.13;;;14.70;76.30;;;-142.21;100.00;112049.66;5008141;28;20473;-73
2022/10/31 04:19:50;;;;;;;5.23;3.73;;;14.70;76.20;;;-142.21;100.00;112049.66;5002684;28;20546;-73
2022/10/31 04:22:17;;;;;;;3.87;3.40;;;14.60;76.00;;;-142.21;100.00;112049.66;4999979;28;20529;-73
2022/10/31 04:24:45;;;;;;;3.60;3.23;;;14.60;75.70;;;-142.21;100.00;112049.66;4996478;28;20461;-73
2022/10/31 04:27:12;;;;;;;7.27;3.37;;;14.60;75.80;;;-142.21;100.00;112049.66;4990352;28;20942;-73
2022/10/31 04:29:39;;;;;;;5.20;3.50;;;14.60;76.00;;;-142.21;100.00;112049.66;5004548;28;20458;-72
2022/10/31 04:32:06;;;;;;;4.73;3.37;;;14.60;76.00;;;-142.21;100.00;112049.66;5011458;28;20517;-73
2022/10/31 04:34:34;;;;;;;4.37;3.47;;;14.60;75.70;;;-142.21;100.00;112049.66;5010752;28;20478;-73
2022/10/31 04:37:02;;;;;;;8.60;3.40;;;14.60;75.90;;;-142.21;100.00;112049.66;5001600;28;20458;-73
2022/10/31 04:39:30;;;;;;;6.57;3.47;;;14.60;76.10;;;-142.21;100.00;112049.66;5012357;28;20533;-73
2022/10/31 04:41:57;;;;;;;4.80;3.50;;;14.50;76.00;;;-142.21;100.00;112049.66;5002461;28;20484;-73
2022/10/31 04:44:24;;;;;;;4.73;3.27;;;14.50;75.70;;;-142.21;100.00;112049.66;4994792;28;20443;-73
2022/10/31 04:46:52;;;;;;;8.63;3.60;;;14.50;75.30;;;-142.21;100.00;112049.66;4996421;28;20474;-73
2022/10/31 04:49:19;;;;;;;4.37;3.60;;;14.50;75.60;;;-142.21;100.00;112049.66;5010250;28;20850;-72
2022/10/31 04:51:46;;;;;;;6.97;3.50;;;14.50;75.70;;;-142.21;100.00;112049.66;5011859;28;20569;-72
2022/10/31 04:54:17;;;;;;;4.73;3.50;;;14.50;75.60;;;-142.21;100.00;112049.66;5000304;28;20455;-72
2022/10/31 04:56:45;;;;;;;4.50;3.30;;;14.40;75.60;;;-142.21;100.00;112049.66;5006380;28;20446;-73
2022/10/31 04:59:12;;;;;;;8.07;3.57;;;14.40;75.90;;;-142.21;100.00;112049.66;5012964;28;20454;-72
2022/10/31 05:01:39;;;;;;;5.93;3.87;;;14.30;76.20;;;-142.21;100.00;112049.66;4995434;28;20590;-73
2022/10/31 05:04:06;;;;;;;5.83;3.60;;;14.30;76.70;;;-142.21;100.00;112049.66;5013744;28;20533;-73
2022/10/31 05:06:33;;;;;;;7.97;4.03;;;14.30;76.70;;;-142.21;100.00;112049.66;4999077;28;20459;-72
2022/10/31 05:09:01;;;;;;;5.93;3.07;;;14.30;76.70;;;-142.21;100.00;112049.66;5012349;28;20482;-73
2022/10/31 05:11:29;;;;;;;4.43;3.40;;;14.30;76.20;;;-142.21;100.00;112049.66;5006697;28;20459;-73
2022/10/31 05:13:56;;;;;;;5.27;3.37;;;14.30;76.10;;;-142.21;100.00;112049.66;4994755;28;20538;-73
2022/10/31 05:16:24;;;;;;;4.10;3.20;;;14.30;75.90;;;-142.21;100.00;112049.66;4995417;28;20483;-73
2022/10/31 05:18:51;;;;;;;5.27;3.60;;;14.30;76.00;;;-142.21;100.00;112049.66;5013747;28;20452;-73
2022/10/31 05:21:18;;;;;;;5.17;3.13;;;14.30;76.00;;;-142.21;100.00;112049.66;5006004;28;20510;-73
2022/10/31 05:23:46;;;;;;;4.00;3.20;;;14.30;75.90;;;-142.21;100.00;112049.66;5010671;28;20453;-73
2022/10/31 05:26:13;;;;;;;5.70;3.07;;;14.20;75.70;;;-142.21;100.00;112049.66;5008598;28;20443;-73
2022/10/31 05:28:41;;;;;;;6.13;3.60;;;14.20;75.70;;;-142.21;100.00;112049.66;5008701;28;20947;-72
2022/10/31 05:31:09;;;;;;;6.07;3.40;;;14.10;75.60;;;-142.21;100.00;112049.66;4997707;28;20529;-72
2022/10/31 05:33:36;;;;;;;7.37;3.50;;;14.10;75.50;;;-142.21;100.00;112049.66;5009355;28;20491;-73
2022/10/31 05:36:07;;;;;;;3.93;3.37;;;14.10;75.40;;;-142.21;100.00;112049.66;5013676;28;20450;-72
2022/10/31 05:38:34;;;;;;;7.10;3.53;;;14.10;75.50;;;-142.21;100.00;112049.66;5011798;28;20500;-73
2022/10/31 05:41:03;;;;;;;6.23;3.70;;;14.10;75.50;;;-142.21;100.00;112049.66;5006436;28;20870;-73
2022/10/31 05:43:30;;;;;;;5.07;3.60;;;14.00;75.80;;;-142.21;100.00;112049.66;4997376;28;20504;-73
2022/10/31 05:46:00;;;;;;;4.97;4.00;;;14.00;75.90;;;-142.21;100.00;112049.66;5009855;28;20531;-73
2022/10/31 05:48:27;;;;;;;4.07;3.67;;;14.00;76.10;;;-142.21;100.00;112049.66;5012491;28;20521;-73
2022/10/31 05:50:54;;;;;;;5.37;3.70;;;14.00;76.10;;;-142.21;100.00;112049.66;5003502;28;20459;-73
2022/10/31 05:53:22;;;;;;;9.23;3.60;;;13.90;75.70;;;-142.21;100.00;112049.66;5010856;28;20492;-72
2022/10/31 05:55:49;;;;;;;5.40;3.90;;;13.90;75.80;;;-142.21;100.00;112049.66;5011219;28;20541;-72
2022/10/31 05:58:16;;;;;;;5.03;3.40;;;13.90;76.00;;;-142.21;100.00;112049.66;5003322;28;20603;-74
2022/10/31 06:00:43;;;;;;;4.10;3.70;;;14.00;75.90;;;-142.21;100.00;112049.66;5013126;28;20450;-73
2022/10/31 06:03:12;;;;;;;6.33;3.80;;;14.00;75.80;;;-142.21;100.00;112049.66;4995027;28;20969;-74
2022/10/31 06:05:39;;;;;;;6.60;3.80;;;14.00;75.70;;;-142.21;100.00;112049.66;5001501;28;20486;-74
2022/10/31 06:08:06;;;;;;;4.73;3.60;;;14.00;75.70;;;-142.21;100.00;112049.66;5007778;28;20533;-74
2022/10/31 06:10:34;;;;;;;4.70;3.50;;;14.00;75.70;;;-142.21;100.00;112049.66;5010111;28;20446;-74
2022/10/31 06:13:01;;;;;;;6.37;3.67;;;13.90;75.50;;;-142.21;100.00;112049.66;4997757;28;20979;-73
2022/10/31 06:15:28;;;;;;;7.93;3.87;;;13.90;75.50;;;-142.21;100.00;112049.66;5005708;28;20481;-74
2022/10/31 06:18:04;;;;;;;5.23;3.20;;;13.90;75.50;;;-142.21;100.00;112049.66;5006676;28;20442;-74
2022/10/31 06:20:34;;;;;;;6.07;3.70;;;13.90;75.70;;;-142.21;100.00;112049.66;5009135;28;20581;-73
2022/10/31 06:23:02;;;;;;;6.57;3.80;;;14.00;75.90;;;-142.21;100.00;112049.66;5010998;28;20533;-74
2022/10/31 06:25:30;;;;;;;5.87;3.63;;;14.00;76.10;;;-142.21;100.00;112049.66;5003565;28;20450;-73
2022/10/31 06:27:57;;;;;;;8.20;4.03;;;14.00;76.20;;;-142.21;100.00;112049.66;5010169;28;20529;-73
2022/10/31 06:30:25;;;;;;;6.50;3.80;;;14.00;76.30;;;-142.21;100.00;112049.66;5006950;28;20485;-74
2022/10/31 06:32:52;;;;;;;4.87;3.50;;;14.00;76.50;;;-142.21;100.00;112049.66;5006391;28;20482;-74
2022/10/31 06:35:21;;;;;;;8.63;3.63;;;14.00;76.50;;;-142.21;100.00;112049.66;5011546;28;20506;-73
2022/10/31 06:37:54;;;;;;;5.97;3.80;;;14.10;76.60;;;-142.21;100.00;112049.66;4997664;28;20447;-74
2022/10/31 06:40:22;;;;;;;5.37;3.87;;;14.10;76.60;;;-142.21;100.00;112049.66;5005559;28;20434;-73
2022/10/31 06:42:58;;;;;;;4.33;3.50;;;14.10;76.70;;;-142.21;100.00;112049.66;5004638;28;20447;-74
2022/10/31 06:45:26;;;;;;;6.87;3.77;;;14.10;76.80;;;-142.21;100.00;112049.66;5000875;28;20449;-73
2022/10/31 06:47:53;;;;;;;4.60;3.50;;;14.10;76.80;;;-142.21;100.00;112049.66;5002471;28;20470;-74
2022/10/31 06:50:21;;;;;;;6.30;3.80;;;14.20;76.80;;;-142.21;100.00;112049.66;4995569;28;20462;-74
2022/10/31 06:52:54;;;;;;;3.87;3.47;;;14.20;76.80;;;-142.21;100.00;112049.66;5006412;28;21057;-74
2022/10/31 06:55:22;;;;;;;5.20;3.50;;;14.20;76.90;;;-142.21;100.00;112049.66;4994923;28;20447;-74
2022/10/31 06:57:51;;;;;;;6.17;4.37;;;14.30;77.00;;;-142.21;100.00;112049.66;5010232;28;20930;-74
2022/10/31 07:00:18;;;;;;;4.80;3.70;;;14.40;77.40;;;-142.21;100.00;112049.66;4993887;28;20453;-74
2022/10/31 07:02:56;;;;;;;6.23;3.70;;;14.40;77.60;;;-142.21;100.00;112049.66;5011991;28;20541;-73
2022/10/31 07:05:24;;;;;;;5.20;3.50;;;14.50;78.00;;;-142.21;100.00;112049.66;5010367;28;21074;-74
2022/10/31 07:07:56;;;;;;;6.07;3.57;;;14.50;77.90;;;-142.21;100.00;112049.66;5005961;28;20447;-74
2022/10/31 07:10:25;;;;;;;6.40;3.63;;;14.50;78.10;;;-142.21;100.00;112049.66;4966091;28;20591;-73
2022/10/31 07:12:56;;;;;;;5.33;3.60;;;14.60;78.30;;;-142.21;100.00;112049.66;4992591;28;20530;-74
2022/10/31 07:15:23;;;;;;;6.77;3.57;;;14.60;78.50;;;-142.21;100.00;112049.66;5015002;28;20585;-73
2022/10/31 07:17:50;;;;;;;5.73;3.63;;;14.70;78.50;;;-142.21;100.00;112049.66;5009367;28;20447;-74
2022/10/31 07:20:18;;;;;;;7.03;3.87;;;14.80;78.70;;;-142.21;100.00;112049.66;4996378;28;20459;-73
2022/10/31 07:22:45;;;;;;;3.50;3.17;;;14.90;78.90;;;-142.21;100.00;112049.66;5019538;28;20462;-74
2022/10/31 07:25:14;;;;;;;4.00;3.40;;;14.90;78.80;;;-142.21;100.00;112049.66;5020543;28;20431;-73
2022/10/31 07:27:43;;;;;;;4.97;3.43;;;15.00;78.90;;;-142.21;100.00;112049.66;5006370;28;20443;-74
2022/10/31 07:30:17;;;;;;;5.83;3.67;;;15.00;78.80;;;-142.21;100.00;112049.66;4996406;28;20487;-75
2022/10/31 07:32:46;;;;;;;5.77;3.63;;;15.10;78.80;;;-142.21;100.00;112049.66;4996561;28;20470;-74
2022/10/31 07:35:16;;;;;;;4.33;3.20;;;15.20;78.80;;;-142.21;100.00;112049.66;4995397;28;20553;-74
2022/10/31 07:37:44;;;;;;;3.80;3.40;;;15.20;79.10;;;-142.21;100.00;112049.66;4995376;28;20450;-74
2022/10/31 07:40:12;;;;;;;6.67;3.80;;;15.30;79.10;;;-142.21;100.00;112049.66;4995729;28;20509;-74
2022/10/31 07:42:43;;;;;;;7.20;3.63;;;15.30;79.10;;;-142.21;100.00;112049.66;4962363;28;20498;-74
2022/10/31 07:45:13;;;;;;;5.73;3.93;;;15.40;79.20;;;-142.21;100.00;112049.66;5000251;28;20521;-74
2022/10/31 07:47:41;;;;;;;6.83;3.80;;;15.60;79.20;;;-142.21;100.00;112049.66;4995228;28;21038;-73
2022/10/31 07:50:10;;;;;;;4.37;3.67;;;15.70;79.00;;;-142.21;100.00;112049.66;4995177;28;21046;-75
2022/10/31 07:52:37;;;;;;;4.17;3.77;;;15.80;79.00;;;-142.21;100.00;112049.66;4995738;28;20509;-74
2022/10/31 07:55:06;;;;;;;5.57;3.60;;;15.90;78.80;;;-142.21;100.00;112049.66;4961117;28;20454;-75
2022/10/31 07:57:34;;;;;;;4.57;3.90;;;16.00;79.10;;;-142.21;100.00;112049.66;4994718;28;20451;-74
2022/10/31 08:00:03;;;;;;;5.47;3.67;;;16.00;78.80;;;-142.21;100.00;112049.66;4995154;28;20447;-74
2022/10/31 08:02:31;;;;;;;5.43;4.10;;;16.10;78.90;;;-142.21;100.00;112049.66;4983233;28;20542;-74
2022/10/31 08:04:59;;;;;;;4.83;3.90;;;16.20;79.70;;;-142.21;100.00;112049.66;4995874;28;20879;-74
2022/10/31 08:07:27;;;;;;;5.73;3.80;;;16.30;79.00;;;-142.21;100.00;112049.66;4993085;28;20451;-74
2022/10/31 08:09:55;;;;;;;5.53;4.33;;;16.40;78.90;;;-142.21;100.00;112049.66;4989970;28;20510;-74
2022/10/31 08:12:22;;;;;;;6.33;3.77;;;16.40;78.70;;;-142.21;100.00;112049.66;4993858;28;20538;-74
2022/10/31 08:14:50;;;;;;;5.20;3.90;;;16.60;78.70;;;-142.21;100.00;112049.66;4981767;28;20456;-74
2022/10/31 08:17:19;;;;;;;8.07;4.10;;;16.70;78.60;;;-142.21;100.00;112049.66;4983784;28;20451;-73
2022/10/31 08:19:46;;;;;;;5.93;3.80;;;16.90;78.50;;;-142.21;100.00;112049.66;4992204;28;20573;-74
2022/10/31 08:22:13;;;;;;;6.87;3.73;;;17.00;78.20;;;-142.21;100.00;112049.66;4990946;28;20842;-75
2022/10/31 08:24:41;;;;;;;5.37;3.70;;;17.10;78.00;;;-142.21;100.00;112049.66;4993155;28;20451;-73
2022/10/31 08:27:08;;;;;;;4.57;3.53;;;17.20;77.90;;;-142.21;100.00;112049.66;4983595;28;20858;-74
2022/10/31 08:29:35;;;;;;;4.40;3.57;;;17.30;77.70;;;-142.21;100.00;112049.66;4992262;28;20856;-74
2022/10/31 08:32:03;;;;;;;5.50;3.33;;;17.40;77.70;;;-142.21;100.00;112049.66;4995951;28;20451;-74
2022/10/31 08:34:32;;;;;;;6.60;3.30;;;17.50;77.70;;;-142.21;100.00;112049.66;4985907;28;20903;-74
2022/10/31 08:36:59;;;;;;;5.60;3.47;;;17.60;77.60;;;-142.21;100.00;112049.66;4994917;28;20455;-74
2022/10/31 08:39:26;;;;;;;8.23;3.90;;;17.70;77.20;;;-142.21;100.00;112049.66;4990418;28;20519;-73
2022/10/31 08:41:53;;;;;;;8.13;3.83;;;17.80;77.00;;;-142.21;100.00;112049.66;4984138;28;20474;-75
2022/10/31 08:44:21;;;;;;;4.20;3.20;;;17.90;77.00;;;-142.21;100.00;112049.66;4981844;28;20476;-76
2022/10/31 08:46:48;;;;;;;8.17;4.37;;;18.10;77.10;;;-142.21;100.00;112049.66;4992879;28;20475;-76
2022/10/31 08:49:15;;;;;;;6.53;4.13;;;18.20;76.70;;;-142.21;100.00;112049.66;5000664;28;20533;-76
2022/10/31 08:51:44;;;;;;;7.27;4.17;;;18.30;76.90;;;-142.21;100.00;112049.66;5013075;28;20548;-76
2022/10/31 08:54:11;;;;;;;6.67;3.90;;;18.40;76.60;;;-142.21;100.00;112049.66;5009442;28;21061;-77
2022/10/31 08:56:38;;;;;;;4.43;4.03;;;18.60;77.20;;;-142.21;100.00;112049.66;4975802;28;20440;-76
2022/10/31 08:59:06;;;;;;;7.47;4.57;;;18.70;76.10;;;-142.21;100.00;112049.66;4995192;28;20522;-77
2022/10/31 09:01:34;;;;;;;7.30;3.90;;;18.80;75.60;;;-142.21;100.00;112049.66;4978712;28;20255;-73
2022/10/31 09:04:01;;;;;;;6.50;4.10;;;18.90;75.40;;;-142.21;100.00;112049.66;4976208;28;20456;-73
2022/10/31 09:06:28;;;;;;;6.93;3.90;;;19.00;75.10;;;-142.21;100.00;112049.66;4975582;28;20448;-73
2022/10/31 09:08:57;;;;;;;4.77;3.90;;;19.10;75.00;;;-142.21;100.00;112049.66;4988792;28;20238;-72
2022/10/31 09:11:24;;;;;;;5.80;3.93;;;19.20;74.70;;;-142.21;100.00;112049.66;5013574;28;20201;-74
2022/10/31 09:13:53;;;;;;;6.57;3.60;;;19.20;74.50;;;-142.21;100.00;112049.66;5013069;28;20544;-74
2022/10/31 09:16:21;;;;;;;5.70;3.83;;;19.30;74.50;;;-142.21;100.00;112049.66;5012301;28;20207;-75
2022/10/31 09:18:50;;;;;;;4.97;3.50;;;19.40;74.40;;;-142.21;100.00;112049.66;5013197;28;20537;-75
2022/10/31 09:21:17;;;;;;;5.73;3.57;;;19.50;74.20;;;-142.21;100.00;112049.66;5013219;28;20454;-75
2022/10/31 09:23:44;;;;;;;6.53;3.60;;;19.50;73.40;;;-142.21;100.00;112049.66;5012362;28;20203;-73
2022/10/31 09:26:12;;;;;;;5.23;3.70;;;19.60;73.50;;;-142.21;100.00;112049.66;5012515;28;20290;-72
2022/10/31 09:28:39;;;;;;;7.90;3.80;;;19.70;73.30;;;-142.21;100.00;112049.66;5012724;28;20203;-72
2022/10/31 09:31:08;;;;;;;7.77;4.40;;;19.80;73.10;;;-142.21;100.00;112049.66;5013224;28;20195;-72
2022/10/31 09:33:37;;;;;;;6.27;3.73;;;19.80;73.10;;;-142.21;100.00;112049.66;5012225;28;20678;-75
2022/10/31 09:36:05;;;;;;;7.57;3.43;;;19.90;73.20;;;-142.21;99.52;112049.66;5029958;28;20213;-75
2022/10/31 09:38:32;;;;;;;4.30;3.33;;;20.10;72.80;;;-142.21;99.76;112049.66;5028343;28;20257;-75
2022/10/31 09:41:20;;;;;;;3.90;3.10;;;20.10;72.70;;;-142.21;99.72;112049.66;5013439;28;20295;-75
2022/10/31 09:43:59;;;;;;;4.70;3.67;;;20.20;72.70;;;-142.21;98.03;112049.66;5013306;28;20275;-75
2022/10/31 09:46:36;;;;;;;5.20;3.10;;;20.30;71.90;;;-142.21;96.83;112049.66;5012743;28;20318;-75
2022/10/31 09:49:35;;;;;;;7.90;4.03;;;20.40;71.50;;;-142.21;95.47;112049.66;5013025;28;20195;-76
2022/10/31 09:52:11;;;;;;;6.17;3.47;;;20.50;70.80;;;-142.21;96.06;112049.66;5013637;28;20192;-75
2022/10/31 09:54:45;;;;;;;6.97;3.63;;;20.50;70.80;;;-142.21;95.16;112049.66;5012648;28;20269;-75
2022/10/31 09:57:23;;;;;;;4.80;3.63;;;20.70;70.50;;;-142.21;95.34;112049.66;5013153;28;20282;-76
2022/10/31 09:59:51;;;;;;;4.90;3.77;;;20.70;70.30;;;-142.21;94.66;112049.66;5012412;28;20242;-76
2022/10/31 10:02:25;;;;;;;5.10;3.40;;;20.80;70.10;;;-142.21;95.37;112049.66;5013269;28;20607;-76
2022/10/31 10:05:00;;;;;;;7.23;3.80;;;20.90;70.20;;;-142.21;94.75;112049.66;5013229;28;20201;-75
2022/10/31 10:07:42;;;;;;;5.50;3.80;;;21.00;70.30;;;-142.21;92.13;112049.66;5013009;28;20251;-75